Time;durP1;ratioP1;P1;durP2;ratioP2;P2;SDS_P1;SDS_P2;PMS_P1;PMS_P2;Temp;Humidity;BMP_temperature;BMP_pressure;BME280_temperature;BME280_humidity;BME280_pressure;Samples;Min_cycle;Max_cycle;Signal;HPM_P1;HPM_P2
2022/11/26 00:01:20;;;;;;;9.35;3.75;;;;;;;10.16;56.83;98675.34;4395447;32;20074;-82
2022/11/26 00:03:48;;;;;;;10.07;3.87;;;;;;;10.20;56.12;98681.25;4394390;32;20117;-82
2022/11/26 00:06:32;;;;;;;10.52;3.50;;;;;;;9.96;56.90;98682.84;4395306;32;20082;-83
2022/11/26 00:08:59;;;;;;;9.93;4.00;;;;;;;9.79;56.85;98681.63;4395470;32;20434;-82
2022/11/26 00:11:27;;;;;;;8.00;3.42;;;;;;;10.00;56.08;98687.06;4394412;32;20107;-82
2022/11/26 00:13:54;;;;;;;8.23;3.28;;;;;;;10.41;54.14;98681.44;4395129;32;20114;-82
2022/11/26 00:16:20;;;;;;;9.15;3.47;;;;;;;9.88;55.49;98697.69;4394293;32;20094;-82
2022/11/26 00:18:47;;;;;;;11.27;3.80;;;;;;;10.09;55.68;98692.75;4395364;32;20087;-81
2022/11/26 00:21:20;;;;;;;11.05;4.05;;;;;;;9.84;56.70;98691.81;4395230;32;20137;-82
2022/11/26 00:23:47;;;;;;;13.65;5.12;;;;;;;9.65;58.40;98693.22;4395218;32;20117;-82
2022/11/26 00:26:16;;;;;;;11.60;4.68;;;;;;;10.37;56.01;98697.09;4395408;32;20098;-82
2022/11/26 00:28:50;;;;;;;13.43;5.05;;;;;;;10.15;55.83;98697.72;4393646;32;20144;-82
2022/11/26 00:31:17;;;;;;;20.80;9.50;;;;;;;9.86;57.27;98698.59;4394755;32;20075;-82
2022/11/26 00:33:44;;;;;;;14.13;6.18;;;;;;;10.59;52.67;98698.09;4395062;32;20090;-83
2022/11/26 00:36:17;;;;;;;17.15;8.48;;;;;;;10.60;51.66;98704.09;4395325;32;20431;-82
2022/11/26 00:38:51;;;;;;;21.58;9.38;;;;;;;10.10;52.96;98711.63;4395129;32;20094;-82
2022/11/26 00:41:21;;;;;;;21.85;9.65;;;;;;;9.30;55.47;98714.81;4394006;32;20133;-82
2022/11/26 00:43:48;;;;;;;24.25;10.82;;;;;;;10.22;52.69;98703.59;4395344;32;20090;-82
2022/11/26 00:46:20;;;;;;;25.60;11.48;;;;;;;10.23;52.18;98709.59;4395200;32;20098;-82
2022/11/26 00:48:47;;;;;;;23.62;11.15;;;;;;;9.88;53.32;98708.00;4395028;32;20083;-82
2022/11/26 00:51:17;;;;;;;16.62;7.45;;;;;;;9.66;53.66;98702.63;4395253;32;20133;-82
2022/11/26 00:53:45;;;;;;;8.75;3.62;;;;;;;9.72;53.43;98713.63;4394165;32;20126;-82
2022/11/26 00:56:17;;;;;;;11.05;4.05;;;;;;;10.17;52.26;98710.56;4395042;32;20450;-82
2022/11/26 00:58:45;;;;;;;13.60;5.68;;;;;;;9.74;53.46;98716.16;4395161;32;20144;-82
2022/11/26 01:01:22;;;;;;;9.13;3.60;;;;;;;8.99;55.56;98716.47;4395126;32;20494;-82
2022/11/26 01:03:49;;;;;;;7.87;3.25;;;;;;;8.98;55.81;98716.50;4394806;32;20133;-82
2022/11/26 01:06:33;;;;;;;8.32;3.22;;;;;;;8.98;55.68;98719.06;4395213;32;20225;-82
2022/11/26 01:09:00;;;;;;;8.65;3.35;;;;;;;8.86;55.80;98719.41;4393907;32;20460;-82
2022/11/26 01:11:27;;;;;;;9.48;3.05;;;;;;;8.53;56.57;98724.47;4395177;32;20221;-82
2022/11/26 01:13:54;;;;;;;9.27;3.20;;;;;;;8.44;57.21;98724.69;4395050;32;20137;-82
2022/11/26 01:16:24;;;;;;;7.57;3.20;;;;;;;7.93;59.74;98718.94;4394974;32;20095;-83
2022/11/26 01:18:53;;;;;;;8.15;2.87;;;;;;;8.34;59.02;98718.91;4395160;32;20086;-82
2022/11/26 01:21:21;;;;;;;9.77;3.60;;;;;;;8.50;58.36;98719.38;4395019;32;20074;-82
2022/11/26 01:23:48;;;;;;;10.15;3.50;;;;;;;8.61;57.85;98714.88;4394739;32;20397;-82
2022/11/26 01:26:17;;;;;;;9.07;3.30;;;;;;;8.81;57.88;98721.22;4394854;32;20098;-82
2022/11/26 01:28:44;;;;;;;10.02;3.58;;;;;;;8.92;57.39;98714.06;4394688;32;20090;-82
2022/11/26 01:31:16;;;;;;;8.73;3.53;;;;;;;8.79;58.11;98710.97;4394764;32;20105;-82
2022/11/26 01:33:43;;;;;;;8.65;3.10;;;;;;;8.93;57.61;98701.19;4394982;32;20106;-82
2022/11/26 01:36:31;;;;;;;9.73;3.53;;;;;;;9.15;57.16;98706.63;4406304;32;20106;-82
2022/11/26 01:39:05;;;;;;;;;;;;;;;10.62;51.83;98705.72;4393911;32;20104;-82
2022/11/26 01:41:38;;;;;;;10.25;3.40;;;;;;;9.97;54.03;98710.31;4393832;32;19996;-82
2022/11/26 01:44:09;;;;;;;8.65;3.55;;;;;;;9.33;55.64;98718.13;4394657;32;20106;-83
2022/11/26 01:46:37;;;;;;;9.57;3.72;;;;;;;8.87;56.47;98710.78;4393751;32;20099;-83
2022/11/26 01:49:20;;;;;;;14.65;3.67;;;;;;;8.10;58.09;98719.44;4394732;32;20102;-82
2022/11/26 01:51:52;;;;;;;8.90;3.40;;;;;;;8.57;57.32;98725.25;4394755;32;20078;-83
2022/11/26 01:54:19;;;;;;;8.45;3.53;;;;;;;8.80;56.49;98732.41;4394670;32;20141;-82
2022/11/26 01:56:50;;;;;;;8.63;3.42;;;;;;;9.13;55.44;98741.00;4393593;32;20122;-83
2022/11/26 01:59:21;;;;;;;9.85;3.35;;;;;;;9.06;55.78;98749.78;4394425;32;20090;-82
2022/11/26 02:01:50;;;;;;;8.32;3.80;;;;;;;9.08;55.46;98742.84;4393523;32;20421;-83
2022/11/26 02:04:28;;;;;;;10.75;3.58;;;;;;;9.21;54.95;98749.38;4394639;32;20150;-82
2022/11/26 02:06:55;;;;;;;10.15;3.75;;;;;;;8.66;55.95;98750.75;4394606;32;20095;-82
2022/11/26 02:09:23;;;;;;;8.32;3.12;;;;;;;8.80;55.77;98747.84;4394534;32;20432;-82
2022/11/26 02:11:50;;;;;;;10.30;3.90;;;;;;;9.01;55.22;98756.75;4393464;32;20152;-82
2022/11/26 02:14:20;;;;;;;13.35;3.62;;;;;;;8.36;56.37;98758.28;4394398;32;20412;-82
2022/11/26 02:16:53;;;;;;;10.32;3.47;;;;;;;7.88;59.28;98749.06;4393440;32;20159;-82
2022/11/26 02:19:47;;;;;;;8.60;3.75;;;;;;;7.32;60.72;98753.56;4394251;32;20109;-82
2022/11/26 02:22:35;;;;;;;9.20;3.47;;;;;;;7.03;62.88;98742.09;4394429;32;20074;-82
2022/11/26 02:25:14;;;;;;;9.93;4.00;;;;;;;7.69;62.57;98753.72;4394455;32;20722;-82
2022/11/26 02:28:25;;;;;;;13.27;4.03;;;;;;;7.44;65.47;98749.06;4394268;32;20086;-82
2022/11/26 02:31:10;;;;;;;11.50;4.50;;;;;;;7.82;64.04;98745.72;4363135;32;20434;-82
2022/11/26 02:34:00;;;;;;;10.77;4.68;;;;;;;8.26;63.39;98743.91;4363145;32;20083;-83
2022/11/26 02:36:33;;;;;;;13.13;5.72;;;;;;;8.56;64.41;98751.84;4363386;32;20111;-82
2022/11/26 02:39:13;;;;;;;11.75;4.87;;;;;;;7.89;68.83;98751.59;4363112;32;20107;-82
2022/11/26 02:41:42;;;;;;;12.43;5.30;;;;;;;8.56;67.33;98754.41;4364125;32;20087;-82
2022/11/26 02:44:09;;;;;;;11.63;5.00;;;;;;;9.38;64.63;98757.50;4364140;32;20422;-82
2022/11/26 02:46:38;;;;;;;13.73;4.90;;;;;;;9.34;65.04;98763.59;4362814;32;20167;-82
2022/11/26 02:49:05;;;;;;;14.38;5.12;;;;;;;9.32;66.04;98759.37;4362792;32;20118;-82
2022/11/26 02:51:32;;;;;;;11.48;4.95;;;;;;;9.50;65.39;98759.75;4362997;32;20103;-82
2022/11/26 02:54:00;;;;;;;9.60;4.55;;;;;;;10.33;62.03;98757.41;4363140;32;20138;-82
2022/11/26 02:56:28;;;;;;;11.70;4.22;;;;;;;9.45;65.64;98758.16;4364911;32;20165;-82
2022/11/26 02:58:56;;;;;;;10.77;3.92;;;;;;;8.78;69.13;98767.63;4364707;32;20158;-82
2022/11/26 03:01:59;;;;;;;10.90;4.55;;;;;;;9.24;68.06;98768.16;4366007;32;20595;-82
2022/11/26 03:04:30;;;;;;;12.45;4.50;;;;;;;9.82;65.45;98770.91;4363588;32;20088;-82
2022/11/26 03:07:01;;;;;;;12.02;4.72;;;;;;;9.53;67.31;98769.97;4364750;32;20098;-82
2022/11/26 03:09:39;;;;;;;9.77;4.00;;;;;;;9.18;68.43;98776.06;4364796;32;20125;-82
2022/11/26 03:12:06;;;;;;;9.85;4.10;;;;;;;10.53;63.81;98780.03;4365879;32;20083;-82
2022/11/26 03:14:33;;;;;;;12.00;3.92;;;;;;;10.18;64.57;98788.78;4365784;32;20075;-82
2022/11/26 03:17:00;;;;;;;10.05;4.15;;;;;;;10.03;65.03;98785.75;4365774;32;20577;-83
2022/11/26 03:19:27;;;;;;;11.70;4.18;;;;;;;10.27;64.57;98781.66;4365809;32;20107;-82
2022/11/26 03:21:54;;;;;;;14.40;4.10;;;;;;;10.90;63.19;98783.13;4365921;32;20079;-82
2022/11/26 03:24:21;;;;;;;11.93;4.30;;;;;;;11.26;61.07;98780.22;4365749;32;20087;-82
2022/11/26 03:26:48;;;;;;;13.02;3.92;;;;;;;11.85;57.88;98785.91;4365784;32;20501;-82
2022/11/26 03:29:14;;;;;;;10.38;4.10;;;;;;;11.92;56.93;98785.72;4382596;32;20102;-83
2022/11/26 03:31:41;;;;;;;10.45;3.97;;;;;;;11.91;55.88;98789.16;4395800;32;20101;-82
2022/11/26 03:34:08;;;;;;;11.52;4.10;;;;;;;11.11;58.04;98791.06;4395692;32;20145;-82
2022/11/26 03:36:35;;;;;;;13.62;4.57;;;;;;;11.47;57.51;98792.41;4395677;32;20442;-82
2022/11/26 03:39:02;;;;;;;8.75;4.12;;;;;;;11.39;58.03;98804.75;4395623;32;20122;-82
2022/11/26 03:41:29;;;;;;;10.18;4.00;;;;;;;10.84;60.75;98816.03;4395827;32;20078;-82
2022/11/26 03:43:56;;;;;;;11.15;4.12;;;;;;;10.83;61.44;98822.09;4394331;32;20100;-82
2022/11/26 03:46:23;;;;;;;10.68;4.15;;;;;;;11.19;61.39;98817.50;4395538;32;20098;-82
2022/11/26 03:48:50;;;;;;;11.18;4.22;;;;;;;10.76;63.74;98818.03;4395555;32;20086;-82
2022/11/26 03:51:17;;;;;;;11.50;4.50;;;;;;;10.90;63.13;98823.59;4395572;32;20347;-82
2022/11/26 03:53:44;;;;;;;9.85;3.87;;;;;;;10.54;64.44;98821.25;4395512;32;20082;-82
2022/11/26 03:56:11;;;;;;;12.85;4.62;;;;;;;10.66;63.28;98823.47;4395641;32;20489;-82
2022/11/26 03:58:38;;;;;;;11.38;4.60;;;;;;;9.41;67.84;98824.38;4395606;32;20103;-82
2022/11/26 04:01:11;;;;;;;10.95;4.80;;;;;;;9.47;67.52;98816.50;4395355;32;20145;-82
2022/11/26 04:03:38;;;;;;;13.00;5.20;;;;;;;9.37;68.77;98821.94;4394316;32;20146;-82
2022/11/26 04:06:06;;;;;;;12.02;5.30;;;;;;;9.86;67.24;98821.47;4393460;32;20118;-82
2022/11/26 04:08:33;;;;;;;14.35;5.28;;;;;;;9.99;66.49;98819.37;4395571;32;20164;-82
2022/11/26 04:11:00;;;;;;;12.10;5.37;;;;;;;9.89;66.39;98821.41;4395538;32;20097;-82
2022/11/26 04:13:27;;;;;;;12.73;4.90;;;;;;;10.70;63.65;98827.63;4395312;32;20374;-82
2022/11/26 04:15:54;;;;;;;13.05;5.20;;;;;;;10.84;62.44;98827.19;4395580;32;20160;-82
2022/11/26 04:18:20;;;;;;;11.35;5.18;;;;;;;10.76;63.49;98828.34;4395404;32;20442;-83
2022/11/26 04:20:47;;;;;;;12.35;5.10;;;;;;;11.15;61.76;98827.06;4395266;32;20509;-82
2022/11/26 04:23:19;;;;;;;13.48;5.53;;;;;;;11.01;62.47;98837.00;4395249;32;20090;-82
2022/11/26 04:25:46;;;;;;;12.43;5.35;;;;;;;11.41;61.64;98830.53;4395196;32;20094;-82
2022/11/26 04:28:14;;;;;;;13.95;5.90;;;;;;;11.73;60.37;98840.63;4393925;32;20133;-82
2022/11/26 04:30:41;;;;;;;12.75;6.07;;;;;;;12.20;58.23;98840.69;4395269;32;20153;-82
2022/11/26 04:33:08;;;;;;;14.38;5.57;;;;;;;11.52;60.85;98849.94;4406648;32;20086;-82
2022/11/26 04:35:36;;;;;;;14.15;5.93;;;;;;;11.67;61.03;98847.72;4395355;32;20086;-82
2022/11/26 04:38:03;;;;;;;14.65;6.25;;;;;;;11.49;62.89;98851.81;4395363;32;20107;-82
2022/11/26 04:40:30;;;;;;;15.80;6.07;;;;;;;10.77;66.07;98858.44;4395075;32;20546;-82
2022/11/26 04:42:57;;;;;;;14.18;5.90;;;;;;;10.73;66.21;98860.25;4395281;32;20433;-82
2022/11/26 04:45:24;;;;;;;14.27;6.70;;;;;;;10.78;66.06;98860.13;4395401;32;20161;-82
2022/11/26 04:47:51;;;;;;;14.82;6.00;;;;;;;9.95;70.27;98857.31;4395233;32;20481;-82
2022/11/26 04:50:19;;;;;;;16.33;6.70;;;;;;;10.78;66.77;98860.13;4394980;32;20144;-82
2022/11/26 04:52:47;;;;;;;16.62;6.15;;;;;;;9.94;68.83;98865.94;4395240;32;20083;-82
2022/11/26 04:55:15;;;;;;;17.10;6.28;;;;;;;10.59;67.79;98873.56;4395226;32;20147;-82
2022/11/26 04:57:42;;;;;;;14.87;6.15;;;;;;;10.13;69.47;98871.44;4395247;32;20141;-82
2022/11/26 05:00:10;;;;;;;14.77;6.47;;;;;;;10.18;68.47;98869.56;4395006;32;20105;-82
2022/11/26 05:02:37;;;;;;;14.18;5.65;;;;;;;10.67;67.07;98876.78;4395243;32;20105;-82
2022/11/26 05:05:04;;;;;;;10.90;4.37;;;;;;;9.67;71.18;98874.38;4395143;32;20162;-82
2022/11/26 05:07:31;;;;;;;12.95;5.32;;;;;;;9.74;71.16;98875.94;4394972;32;20102;-82
2022/11/26 05:09:58;;;;;;;12.82;5.22;;;;;;;9.54;71.79;98869.56;4394891;32;20094;-82
2022/11/26 05:12:25;;;;;;;14.55;5.50;;;;;;;9.24;73.99;98876.31;4395072;32;20070;-82
2022/11/26 05:14:52;;;;;;;17.48;5.30;;;;;;;9.13;75.31;98865.41;4394995;32;20094;-82
2022/11/26 05:17:19;;;;;;;12.50;5.22;;;;;;;9.00;76.56;98874.31;4394761;32;20176;-82
2022/11/26 05:19:46;;;;;;;15.30;5.47;;;;;;;9.01;75.77;98876.00;4394892;32;20099;-82
2022/11/26 05:22:13;;;;;;;14.30;5.03;;;;;;;9.52;73.47;98886.78;4406402;32;20148;-82
2022/11/26 05:24:40;;;;;;;11.82;5.22;;;;;;;10.01;71.23;98879.50;4395235;32;20121;-82
2022/11/26 05:27:07;;;;;;;;;;;;;;;10.73;67.93;98897.22;4395227;32;20099;-82
2022/11/26 05:29:34;;;;;;;14.63;5.47;;;;;;;10.31;68.98;98895.87;4394616;32;19977;-82
2022/11/26 05:32:01;;;;;;;;;;;;;;;9.38;74.03;98894.00;4395326;32;20185;-82
2022/11/26 05:34:28;;;;;;;17.95;5.32;;;;;;;9.76;72.23;98898.19;4394940;32;19977;-82
2022/11/26 05:36:55;;;;;;;11.25;4.65;;;;;;;9.75;72.36;98899.06;4394923;32;20105;-82
2022/11/26 05:39:21;;;;;;;;;;;;;;;10.14;70.58;98898.91;4395012;32;20091;-82
2022/11/26 05:41:48;;;;;;;13.88;5.15;;;;;;;9.92;72.02;98885.75;4394969;32;20312;-82
2022/11/26 05:44:15;;;;;;;12.48;4.97;;;;;;;9.24;75.69;98886.59;4394895;32;20117;-81
2022/11/26 05:46:42;;;;;;;12.00;4.90;;;;;;;9.15;77.59;98886.84;4394865;32;20086;-82
2022/11/26 05:49:09;;;;;;;12.35;4.87;;;;;;;8.73;79.22;98900.69;4393553;32;20153;-81
2022/11/26 05:51:36;;;;;;;10.95;4.55;;;;;;;8.83;79.69;98897.03;4394790;32;20450;-81
2022/11/26 05:54:03;;;;;;;12.75;5.05;;;;;;;9.14;77.96;98902.31;4393579;32;20106;-82
2022/11/26 05:56:30;;;;;;;14.20;5.45;;;;;;;9.50;76.76;98905.75;4394802;32;20094;-82
2022/11/26 05:58:57;;;;;;;;;;;;;;;8.80;81.27;98909.94;4394949;32;20109;-82
2022/11/26 06:01:24;;;;;;;14.20;5.00;;;;;;;8.70;81.97;98904.16;4394763;32;19974;-82
2022/11/26 06:03:50;;;;;;;;;;;;;;;8.82;80.80;98906.44;4394951;32;20454;-82
2022/11/26 06:06:17;;;;;;;12.75;5.32;;;;;;;8.82;81.25;98915.91;4394712;32;20266;-82
2022/11/26 06:08:44;;;;;;;11.32;4.57;;;;;;;8.95;80.74;98909.63;4394549;32;20148;-82
2022/11/26 06:11:12;;;;;;;14.07;5.35;;;;;;;8.79;81.88;98921.13;4394552;32;20421;-82
2022/11/26 06:13:39;;;;;;;10.65;4.47;;;;;;;8.57;84.03;98910.44;4394535;32;20098;-82
2022/11/26 06:16:06;;;;;;;13.20;4.28;;;;;;;8.66;84.14;98925.69;4394670;32;20090;-82
2022/11/26 06:18:36;;;;;;;13.45;3.83;;;;;;;8.29;85.27;98931.53;4394599;32;20106;-82
2022/11/26 06:21:04;;;;;;;10.18;3.75;;;;;;;9.04;82.21;98931.72;4394405;32;20338;-82
2022/11/26 06:23:32;;;;;;;14.68;4.05;;;;;;;8.61;83.96;98925.81;4393213;32;20121;-82
2022/11/26 06:25:59;;;;;;;12.05;4.62;;;;;;;8.17;86.11;98933.50;4394435;32;20099;-82
2022/11/26 06:28:26;;;;;;;11.68;4.40;;;;;;;8.84;83.54;98932.19;4393446;32;20086;-82
2022/11/26 06:30:53;;;;;;;12.48;4.18;;;;;;;8.80;83.69;98933.94;4393991;32;20087;-82
2022/11/26 06:33:20;;;;;;;10.98;4.45;;;;;;;8.94;83.06;98943.97;4394377;32;20111;-82
2022/11/26 06:35:47;;;;;;;;;;;;;;;9.34;80.93;98946.47;4394642;32;20111;-82
2022/11/26 06:38:14;;;;;;;10.63;3.67;;;;;;;9.32;80.94;98947.38;4394433;32;19978;-82
2022/11/26 06:40:41;;;;;;;10.30;3.72;;;;;;;8.97;82.87;98949.03;4394019;32;20087;-82
2022/11/26 06:43:07;;;;;;;9.65;3.47;;;;;;;8.74;83.78;98941.81;4394209;32;20125;-82
2022/11/26 06:45:34;;;;;;;12.02;4.05;;;;;;;9.09;81.79;98956.50;4394243;32;20152;-82
2022/11/26 06:48:01;;;;;;;10.75;3.87;;;;;;;9.70;79.80;98959.38;4394170;32;20082;-82
2022/11/26 06:50:28;;;;;;;9.48;3.62;;;;;;;9.14;82.46;98954.63;4394028;32;20105;-82
2022/11/26 06:52:55;;;;;;;9.88;3.58;;;;;;;9.47;81.75;98965.91;4405386;32;20751;-82
2022/11/26 06:55:22;;;;;;;;;;;;;;;10.20;78.12;98963.19;4394329;32;20094;-82
2022/11/26 06:57:50;;;;;;;10.27;3.97;;;;;;;9.59;81.12;98980.25;4394073;32;19974;-82
2022/11/26 07:00:18;;;;;;;10.45;3.47;;;;;;;9.62;80.41;98976.72;4392709;32;20153;-82
2022/11/26 07:02:45;;;;;;;9.52;3.60;;;;;;;9.29;82.04;98976.62;4392791;32;20762;-82
2022/11/26 07:05:12;;;;;;;10.82;3.35;;;;;;;9.75;81.05;98988.44;4393928;32;20500;-82
2022/11/26 07:07:39;;;;;;;9.38;3.78;;;;;;;9.50;82.57;98983.03;4393701;32;20087;-82
2022/11/26 07:10:07;;;;;;;11.75;3.85;;;;;;;9.91;78.79;99000.06;4393738;32;20133;-82
2022/11/26 07:12:34;;;;;;;8.02;3.30;;;;;;;9.79;80.53;98990.06;4393775;32;20117;-82
2022/11/26 07:15:00;;;;;;;9.73;3.62;;;;;;;9.93;80.19;98998.28;4393846;32;20091;-82
2022/11/26 07:17:28;;;;;;;9.10;3.37;;;;;;;10.30;77.86;98999.94;4393693;32;20086;-82
2022/11/26 07:19:55;;;;;;;10.20;3.42;;;;;;;9.71;81.35;98997.13;4393544;32;20430;-82
2022/11/26 07:22:22;;;;;;;10.27;3.97;;;;;;;9.20;84.73;99005.16;4393695;32;20113;-82
2022/11/26 07:24:48;;;;;;;;;;;;;;;9.89;81.83;99009.59;4394013;32;20113;-82
2022/11/26 07:27:15;;;;;;;9.63;3.80;;;;;;;10.14;79.67;99008.06;4393648;32;19984;-82
2022/11/26 07:29:42;;;;;;;9.05;3.42;;;;;;;10.35;78.17;99019.59;4384852;32;274630;-82
2022/11/26 07:32:09;;;;;;;11.70;4.55;;;;;;;10.38;78.84;99016.06;4393548;32;20158;-82
2022/11/26 07:34:36;;;;;;;12.23;4.20;;;;;;;10.43;78.18;99017.66;4393518;32;20120;-82
2022/11/26 07:37:04;;;;;;;10.77;4.30;;;;;;;11.25;74.55;99026.53;4393482;32;20087;-82
2022/11/26 07:39:31;;;;;;;10.38;4.62;;;;;;;11.75;72.15;99030.12;4393463;32;20152;-82
2022/11/26 07:41:57;;;;;;;10.23;4.12;;;;;;;11.33;73.24;99034.06;4395449;32;20086;-82
2022/11/26 07:44:24;;;;;;;11.23;4.32;;;;;;;12.35;69.45;99035.97;4395656;32;20164;-82
2022/11/26 07:46:51;;;;;;;11.95;4.15;;;;;;;11.80;70.64;99032.59;4395578;32;20606;-82
2022/11/26 07:49:18;;;;;;;11.10;4.55;;;;;;;12.02;70.71;99035.38;4395521;32;20109;-82
2022/11/26 07:51:45;;;;;;;11.77;4.37;;;;;;;11.72;71.76;99026.81;4395759;32;20413;-82
2022/11/26 07:54:12;;;;;;;10.40;4.20;;;;;;;11.71;71.14;99030.28;4395433;32;20094;-82
2022/11/26 07:56:39;;;;;;;10.85;4.68;;;;;;;11.36;73.04;99031.38;4395598;32;20133;-82
2022/11/26 07:59:06;;;;;;;11.60;4.20;;;;;;;12.27;68.42;99031.03;4395464;32;20079;-82
2022/11/26 08:01:33;;;;;;;11.15;4.75;;;;;;;11.70;70.96;99033.78;4395517;32;20512;-82
2022/11/26 08:04:04;;;;;;;13.25;4.87;;;;;;;10.58;75.56;99031.03;4394381;32;20527;-82
2022/11/26 08:06:31;;;;;;;11.18;4.43;;;;;;;11.04;75.27;99033.16;4395530;32;20531;-82
2022/11/26 08:08:58;;;;;;;11.35;3.90;;;;;;;11.81;70.72;99039.50;4394260;32;20079;-82
2022/11/26 08:11:27;;;;;;;9.48;3.78;;;;;;;11.62;71.66;99046.94;4395645;32;20153;-82
2022/11/26 08:13:57;;;;;;;13.45;4.37;;;;;;;11.47;72.11;99040.47;4395441;32;20094;-82
2022/11/26 08:16:24;;;;;;;12.27;4.82;;;;;;;11.15;74.36;99036.28;4395550;32;20090;-82
2022/11/26 08:18:58;;;;;;;12.90;4.07;;;;;;;11.23;74.52;99042.06;4395514;32;20466;-82
2022/11/26 08:21:25;;;;;;;12.27;4.85;;;;;;;11.04;75.31;99045.22;4395445;32;20099;-82
2022/11/26 08:23:53;;;;;;;9.88;4.22;;;;;;;10.70;78.29;99039.28;4395378;32;20120;-82
2022/11/26 08:26:20;;;;;;;12.30;4.57;;;;;;;10.71;78.89;99043.56;4395499;32;20145;-82
2022/11/26 08:28:56;;;;;;;11.50;4.18;;;;;;;10.71;78.17;99046.13;4395219;32;20149;-82
2022/11/26 08:31:26;;;;;;;12.05;5.03;;;;;;;9.76;83.74;99047.66;4394129;32;20111;-82
2022/11/26 08:34:00;;;;;;;11.90;4.80;;;;;;;10.94;77.75;99049.81;4394273;32;20141;-82
2022/11/26 08:36:27;;;;;;;13.07;4.43;;;;;;;10.68;79.04;99050.53;4395408;32;20082;-82
2022/11/26 08:38:57;;;;;;;9.73;3.75;;;;;;;10.14;81.69;99053.63;4395293;32;20087;-82
2022/11/26 08:41:24;;;;;;;11.25;4.45;;;;;;;10.55;79.54;99067.25;4395349;32;20094;-82
2022/11/26 08:43:51;;;;;;;13.38;4.22;;;;;;;10.19;81.95;99061.25;4395236;32;20094;-82
2022/11/26 08:46:33;;;;;;;13.25;4.60;;;;;;;10.33;80.92;99072.13;4395420;32;20433;-82
2022/11/26 08:49:00;;;;;;;10.80;3.83;;;;;;;10.48;79.61;99069.13;4395113;32;20152;-82
2022/11/26 08:51:27;;;;;;;11.95;3.72;;;;;;;11.25;76.48;99068.69;4394987;32;20090;-82
2022/11/26 08:53:53;;;;;;;10.38;3.83;;;;;;;11.50;74.89;99079.19;4394802;32;20540;-82
2022/11/26 08:56:20;;;;;;;;;;;;;;;10.72;77.35;99083.12;4395387;32;20109;-82
2022/11/26 08:58:47;;;;;;;9.60;3.65;;;;;;;11.27;74.99;99078.97;4395293;32;19970;-82
2022/11/26 09:01:20;;;;;;;10.75;4.47;;;;;;;11.03;76.65;99077.97;4395259;32;20102;-82
2022/11/26 09:03:49;;;;;;;11.77;4.10;;;;;;;11.05;76.72;99081.34;4394062;32;20121;-82
2022/11/26 09:06:17;;;;;;;9.48;4.10;;;;;;;10.58;78.02;99080.06;4393973;32;20155;-82
2022/11/26 09:09:11;;;;;;;10.07;4.32;;;;;;;10.67;78.13;99090.16;4406414;32;20079;-82
2022/11/26 09:11:33;;;;;;;10.52;4.20;;;;;;;11.25;75.41;99091.09;4394935;32;20090;-82
2022/11/26 09:14:01;;;;;;;10.27;4.03;;;;;;;10.61;78.63;99093.72;4395027;32;20106;-82
2022/11/26 09:16:28;;;;;;;9.75;3.85;;;;;;;11.60;75.59;99103.00;4395099;32;20094;-82
2022/11/26 09:18:57;;;;;;;10.68;4.05;;;;;;;12.16;71.51;99095.25;4394979;32;20082;-82
2022/11/26 09:21:24;;;;;;;8.90;3.47;;;;;;;11.49;74.62;99092.16;4393864;32;20121;-82
2022/11/26 09:23:51;;;;;;;9.98;4.10;;;;;;;11.40;74.49;99090.69;4394942;32;20098;-82
2022/11/26 09:26:20;;;;;;;9.45;3.95;;;;;;;11.22;74.39;99089.47;4395048;32;20144;-82
2022/11/26 09:28:47;;;;;;;10.73;4.20;;;;;;;11.07;76.17;99095.06;4394683;32;20148;-82
2022/11/26 09:31:15;;;;;;;10.20;4.15;;;;;;;10.93;77.51;99103.19;4394858;32;20094;-82
2022/11/26 09:33:42;;;;;;;10.57;4.30;;;;;;;11.02;76.17;99095.19;4394897;32;20120;-82
2022/11/26 09:36:11;;;;;;;9.18;3.83;;;;;;;11.13;76.61;99097.47;4393778;32;20091;-82
2022/11/26 09:38:39;;;;;;;9.00;3.78;;;;;;;11.29;75.30;99098.75;4395024;32;20449;-83
2022/11/26 09:41:12;;;;;;;10.00;4.00;;;;;;;11.21;75.18;99102.44;4394940;32;20432;-82
2022/11/26 09:43:48;;;;;;;9.50;3.80;;;;;;;11.12;75.95;99100.94;4395034;32;20106;-82
2022/11/26 09:46:28;;;;;;;10.40;4.18;;;;;;;10.79;75.70;99100.13;4394907;32;20136;-82
2022/11/26 09:49:16;;;;;;;8.80;3.85;;;;;;;11.59;73.05;99104.75;4394807;32;20079;-82
2022/11/26 09:51:46;;;;;;;9.50;3.67;;;;;;;11.65;72.32;99105.44;4395027;32;20102;-82
2022/11/26 09:54:17;;;;;;;9.20;3.50;;;;;;;11.59;72.46;99109.06;4393657;32;20621;-82
2022/11/26 09:56:44;;;;;;;10.13;3.92;;;;;;;10.81;74.68;99121.59;4393657;32;20141;-82
2022/11/26 09:59:16;;;;;;;9.45;3.10;;;;;;;11.29;72.66;99119.41;4393528;32;20381;-82
2022/11/26 10:01:43;;;;;;;8.63;2.67;;;;;;;10.14;76.65;99113.81;4393569;32;20102;-82
2022/11/26 10:04:27;;;;;;;9.32;3.22;;;;;;;10.28;76.25;99116.06;4393523;32;20124;-82
2022/11/26 10:07:05;;;;;;;8.05;2.83;;;;;;;9.30;81.46;99116.56;4393827;32;20087;-82
2022/11/26 10:09:39;;;;;;;9.52;2.90;;;;;;;9.64;79.15;99116.69;4394725;32;20109;-82
2022/11/26 10:12:25;;;;;;;9.50;2.53;;;;;;;9.15;82.05;99118.56;4394674;32;20144;-82
2022/11/26 10:15:08;;;;;;;7.37;2.75;;;;;;;9.69;79.97;99118.28;4393952;32;20109;-82
2022/11/26 10:17:46;;;;;;;8.45;2.85;;;;;;;10.42;77.46;99120.91;4395019;32;20365;-82
2022/11/26 10:20:35;;;;;;;6.90;3.00;;;;;;;9.82;78.13;99106.81;4395238;32;20454;-82
2022/11/26 10:23:11;;;;;;;6.60;2.90;;;;;;;10.62;76.06;99112.62;4393985;32;20102;-82
2022/11/26 10:25:42;;;;;;;6.35;2.42;;;;;;;10.76;75.00;99112.28;4395076;32;20099;-82
2022/11/26 10:28:19;;;;;;;6.43;2.40;;;;;;;10.95;73.24;99106.59;4394491;32;20143;-82
2022/11/26 10:30:52;;;;;;;6.60;2.85;;;;;;;10.77;74.56;99116.56;4394618;32;20105;-82
2022/11/26 10:33:19;;;;;;;7.47;2.80;;;;;;;9.78;78.65;99112.06;4393826;32;20366;-82
2022/11/26 10:35:48;;;;;;;6.28;2.40;;;;;;;10.13;78.09;99117.28;4394795;32;20152;-82
2022/11/26 10:38:16;;;;;;;7.18;2.45;;;;;;;9.83;78.64;99116.25;4394296;32;20090;-84
2022/11/26 10:40:43;;;;;;;6.50;2.30;;;;;;;9.81;81.14;99118.00;4393083;32;20157;-84
2022/11/26 10:43:22;;;;;;;4.82;2.15;;;;;;;10.12;78.08;99123.31;4394183;32;20152;-84
2022/11/26 10:45:51;;;;;;;6.43;2.78;;;;;;;9.34;81.52;99125.91;4393201;32;20468;-82
2022/11/26 10:48:25;;;;;;;6.50;2.28;;;;;;;9.71;79.65;99108.78;4394134;32;20144;-82
2022/11/26 10:51:01;;;;;;;6.80;1.98;;;;;;;9.89;79.53;99111.81;4392954;32;20114;-82
2022/11/26 10:53:31;;;;;;;5.15;2.03;;;;;;;9.89;80.37;99111.81;4392889;32;20106;-82
2022/11/26 10:55:59;;;;;;;7.05;2.42;;;;;;;10.55;77.60;99119.72;4394233;32;20090;-82
2022/11/26 10:58:30;;;;;;;5.28;2.15;;;;;;;10.12;78.97;99112.16;4393975;32;20430;-82
2022/11/26 11:00:59;;;;;;;6.95;2.60;;;;;;;10.39;77.73;99111.50;4394340;32;20098;-82
2022/11/26 11:03:33;;;;;;;6.82;2.70;;;;;;;10.10;79.59;99111.31;4393895;32;20166;-82
2022/11/26 11:06:20;;;;;;;8.02;2.42;;;;;;;10.01;81.12;99114.97;4392641;32;20086;-82
2022/11/26 11:08:48;;;;;;;;;;;;;;;9.90;81.09;99111.81;4394024;32;20101;-82
2022/11/26 11:11:22;;;;;;;4.80;2.17;;;;;;;10.13;79.86;99111.25;4393971;32;19974;-82
2022/11/26 11:13:49;;;;;;;6.30;2.53;;;;;;;9.43;82.55;99108.53;4392572;32;20098;-82
2022/11/26 11:16:37;;;;;;;8.02;2.87;;;;;;;10.34;79.31;99110.78;4395275;32;20152;-82
2022/11/26 11:19:15;;;;;;;6.65;2.53;;;;;;;10.02;80.77;99111.53;4394728;32;20102;-82
2022/11/26 11:21:43;;;;;;;8.82;2.87;;;;;;;10.36;79.48;99108.16;4394712;32;20074;-82
2022/11/26 11:24:22;;;;;;;9.27;2.83;;;;;;;10.18;79.17;99111.97;4394796;32;20102;-82
2022/11/26 11:26:53;;;;;;;6.15;2.65;;;;;;;9.30;84.38;99106.25;4394605;32;20149;-82
2022/11/26 11:29:27;;;;;;;8.88;3.40;;;;;;;9.66;84.12;99107.19;4395326;32;20086;-82
2022/11/26 11:31:56;;;;;;;10.23;3.78;;;;;;;9.83;83.70;99102.50;4395918;32;20420;-83
2022/11/26 11:34:32;;;;;;;10.73;3.30;;;;;;;10.13;81.74;99099.22;4395508;32;20154;-82
2022/11/26 11:37:12;;;;;;;13.32;3.95;;;;;;;9.73;83.93;99093.28;4395930;32;20152;-83
2022/11/26 11:39:41;;;;;;;9.32;3.62;;;;;;;10.44;81.74;99108.81;4395685;32;20086;-82
2022/11/26 11:42:31;;;;;;;9.88;3.85;;;;;;;10.25;81.71;99105.84;4394512;32;20479;-82
2022/11/26 11:44:58;;;;;;;10.55;4.47;;;;;;;9.51;85.17;99101.50;4395854;32;20103;-83
2022/11/26 11:47:44;;;;;;;10.45;4.07;;;;;;;9.98;83.97;99104.72;4395552;32;20091;-83